createdAt,value
2022-08-19T00:02:50.145Z,101326.66
2022-08-19T00:05:32.612Z,101325.81
2022-08-19T00:08:20.690Z,101334.75
2022-08-19T00:11:02.027Z,101329.66
2022-08-19T00:13:48.495Z,101319.09
2022-08-19T00:16:35.666Z,101317.28
2022-08-19T00:19:17.570Z,101323.47
2022-08-19T00:22:09.784Z,101311.25
2022-08-19T00:24:54.903Z,101314.59
2022-08-19T00:27:41.619Z,101324.59
2022-08-19T00:30:22.925Z,101324.75
2022-08-19T00:33:11.158Z,101323.88
2022-08-19T00:35:56.106Z,101321.09
2022-08-19T00:38:47.470Z,101310.44
2022-08-19T00:41:30.882Z,101312.13
2022-08-19T00:44:21.018Z,101309.50
2022-08-19T00:47:06.799Z,101323.91
2022-08-19T00:50:04.676Z,101308.19
2022-08-19T00:52:52.819Z,101315.09
2022-08-19T00:55:42.502Z,101314.09
2022-08-19T00:58:29.244Z,101307.91
2022-08-19T01:01:17.762Z,101314.06
2022-08-19T01:03:58.880Z,101307.84
2022-08-19T01:06:48.907Z,101300.84
2022-08-19T01:09:30.635Z,101300.84
2022-08-19T01:12:17.634Z,101307.91
2022-08-19T01:15:13.606Z,101311.50
2022-08-19T01:18:02.031Z,101307.22
2022-08-19T01:20:43.548Z,101303.47
2022-08-19T01:23:43.911Z,101310.63
2022-08-19T01:26:27.908Z,101302.75
2022-08-19T01:29:15.125Z,101298.16
2022-08-19T01:31:59.932Z,101301.69
2022-08-19T01:34:48.659Z,101298.13
2022-08-19T01:37:31.738Z,101297.25
2022-08-19T01:40:21.321Z,101298.00
2022-08-19T01:43:02.600Z,101303.22
2022-08-19T01:45:52.059Z,101301.34
2022-08-19T01:48:32.972Z,101306.03
2022-08-19T01:51:21.493Z,101300.72
2022-08-19T01:54:05.351Z,101307.75
2022-08-19T01:56:52.918Z,101298.56
2022-08-19T01:59:34.302Z,101303.00
2022-08-19T02:02:22.694Z,101298.69
2022-08-19T02:05:04.587Z,101303.97
2022-08-19T02:07:54.719Z,101303.00
2022-08-19T02:10:36.701Z,101297.53
2022-08-19T02:13:26.284Z,101299.25
2022-08-19T02:16:24.790Z,101299.22
2022-08-19T02:19:11.679Z,101302.88
2022-08-19T02:21:52.801Z,101306.50
2022-08-19T02:24:40.475Z,101306.41
2022-08-19T02:27:24.648Z,101310.81
2022-08-19T02:30:14.027Z,101301.13
2022-08-19T02:32:55.945Z,101302.03
2022-08-19T02:35:44.495Z,101300.22
2022-08-19T02:38:34.679Z,101308.41
2022-08-19T02:41:33.726Z,101307.44
2022-08-19T02:44:30.313Z,101300.38
2022-08-19T02:47:19.871Z,101310.03
2022-08-19T02:50:00.690Z,101305.78
2022-08-19T02:52:48.805Z,101307.44
2022-08-19T02:55:30.014Z,101306.69
2022-08-19T02:58:18.474Z,101309.41
2022-08-19T03:01:04.349Z,101312.81
2022-08-19T03:03:52.736Z,101312.88
2022-08-19T03:06:35.268Z,101318.34
2022-08-19T03:09:24.747Z,101318.31
2022-08-19T03:12:06.611Z,101311.22
2022-08-19T03:15:00.614Z,101306.63
2022-08-19T03:17:48.060Z,101305.59
2022-08-19T03:20:31.023Z,101305.63
2022-08-19T03:23:22.708Z,101295.28
2022-08-19T03:26:16.381Z,101293.53
2022-08-19T03:29:05.837Z,101297.75
2022-08-19T03:31:52.461Z,101305.94
2022-08-19T03:34:44.659Z,101297.06
2022-08-19T03:37:27.050Z,101301.53
2022-08-19T03:40:16.702Z,101307.63
2022-08-19T03:42:57.808Z,101310.28
2022-08-19T03:45:46.047Z,101312.06
2022-08-19T03:48:26.724Z,101308.66
2022-08-19T03:51:30.592Z,101304.25
2022-08-19T03:54:15.775Z,101309.31
2022-08-19T03:57:04.643Z,101314.78
2022-08-19T03:59:46.832Z,101319.03
2022-08-19T04:02:36.009Z,101316.41
2022-08-19T04:05:16.887Z,101311.16
2022-08-19T04:08:08.661Z,101313.63
2022-08-19T04:10:52.756Z,101309.19
2022-08-19T04:13:42.290Z,101310.06
2022-08-19T04:16:35.161Z,101306.63
2022-08-19T04:19:16.772Z,101299.44
2022-08-19T04:22:05.761Z,101295.28
2022-08-19T04:24:46.869Z,101301.72
2022-08-19T04:27:36.201Z,101296.38
2022-08-19T04:30:19.395Z,101306.97
2022-08-19T04:33:06.992Z,101294.44
2022-08-19T04:35:50.019Z,101306.94
2022-08-19T04:38:40.815Z,101305.94
2022-08-19T04:41:40.696Z,101309.59
2022-08-19T04:44:33.214Z,101309.50
2022-08-19T04:47:16.438Z,101307.84
2022-08-19T04:50:24.195Z,101308.72
2022-08-19T04:53:04.675Z,101307.19
2022-08-19T04:55:52.840Z,101310.84
2022-08-19T04:58:35.929Z,101313.41
2022-08-19T05:01:30.983Z,101307.16
2022-08-19T05:04:14.679Z,101307.25
2022-08-19T05:07:02.226Z,101307.22
2022-08-19T05:09:57.570Z,101309.88
2022-08-19T05:12:48.913Z,101316.09
2022-08-19T05:15:43.966Z,101317.84
2022-08-19T05:18:50.397Z,101319.44
2022-08-19T05:21:49.703Z,101320.31
2022-08-19T05:24:51.207Z,101322.91
2022-08-19T05:27:39.761Z,101317.69
2022-08-19T05:30:46.090Z,101317.59
2022-08-19T05:33:28.540Z,101319.41
2022-08-19T05:36:21.022Z,101319.16
2022-08-19T05:39:02.706Z,101318.16
2022-08-19T05:41:53.748Z,101317.31
2022-08-19T05:44:40.704Z,101320.66
2022-08-19T05:47:29.925Z,101328.91
2022-08-19T05:50:12.722Z,101336.06
2022-08-19T05:53:00.807Z,101335.13
2022-08-19T05:55:44.281Z,101338.56
2022-08-19T05:58:31.948Z,101338.56
2022-08-19T06:01:18.782Z,101340.44
2022-08-19T06:04:07.452Z,101341.28
2022-08-19T06:07:12.323Z,101336.81
2022-08-19T06:09:59.035Z,101338.41
2022-08-19T06:12:49.095Z,101346.31
2022-08-19T06:15:43.698Z,101344.59
2022-08-19T06:18:33.742Z,101346.16
2022-08-19T06:21:15.324Z,101339.06
2022-08-19T06:24:06.464Z,101342.72
2022-08-19T06:26:51.525Z,101339.03
2022-08-19T06:29:42.661Z,101339.31
2022-08-19T06:32:26.715Z,101340.34
2022-08-19T06:35:16.931Z,101341.97
2022-08-19T06:37:58.890Z,101342.88
2022-08-19T06:40:46.769Z,101338.47
2022-08-19T06:43:29.161Z,101346.28
2022-08-19T06:46:22.241Z,101338.88
2022-08-19T06:49:05.018Z,101345.03
2022-08-19T06:51:56.289Z,101351.03
2022-08-19T06:54:55.445Z,101352.72
2022-08-19T06:57:47.541Z,101352.78
2022-08-19T07:00:28.948Z,101356.19
2022-08-19T07:03:16.170Z,101358.81
2022-08-19T07:05:58.006Z,101354.19
2022-08-19T07:08:49.215Z,101356.00
2022-08-19T07:11:30.081Z,101349.69
2022-08-19T07:14:19.998Z,101352.19
2022-08-19T07:17:07.868Z,101351.28
2022-08-19T07:19:51.363Z,101359.84
2022-08-19T07:22:41.934Z,101357.16
2022-08-19T07:25:32.381Z,101359.59
2022-08-19T07:28:24.656Z,101360.03
2022-08-19T07:31:23.809Z,101373.84
2022-08-19T07:34:17.339Z,101380.69
2022-08-19T07:37:02.234Z,101373.59
2022-08-19T07:39:51.415Z,101380.44
2022-08-19T07:42:35.290Z,101376.94
2022-08-19T07:45:25.530Z,101378.66
2022-08-19T07:48:09.524Z,101361.91
2022-08-19T07:51:06.892Z,101370.66
2022-08-19T07:53:52.224Z,101369.41
2022-08-19T07:56:41.166Z,101356.00
2022-08-19T07:59:33.440Z,101367.69
2022-08-19T08:02:29.196Z,101371.94
2022-08-19T08:05:35.766Z,101370.22
2022-08-19T08:08:27.779Z,101366.91
2022-08-19T08:11:15.519Z,101381.34
2022-08-19T08:14:06.041Z,101369.84
2022-08-19T08:17:10.951Z,101376.47
2022-08-19T08:20:02.362Z,101382.59
2022-08-19T08:23:15.450Z,101380.66
2022-08-19T08:26:05.786Z,101379.00
2022-08-19T08:28:48.098Z,101375.91
2022-08-19T08:31:38.946Z,101375.72
2022-08-19T08:34:21.788Z,101383.91
2022-08-19T08:37:13.455Z,101377.72
2022-08-19T08:39:58.874Z,101377.88
2022-08-19T08:43:05.622Z,101375.97
2022-08-19T08:46:07.621Z,101376.59
2022-08-19T08:49:01.934Z,101388.44
2022-08-19T08:52:00.052Z,101384.88
2022-08-19T08:54:55.402Z,101383.78
2022-08-19T08:57:43.406Z,101390.31
2022-08-19T09:00:33.619Z,101374.56
2022-08-19T09:03:31.510Z,101374.63
2022-08-19T09:06:21.943Z,101379.06
2022-08-19T09:09:28.960Z,101376.53
2022-08-19T09:12:35.286Z,101379.84
2022-08-19T09:15:19.820Z,101378.72
2022-08-19T09:18:19.293Z,101378.47
2022-08-19T09:21:01.284Z,101383.38
2022-08-19T09:23:51.042Z,101388.41
2022-08-19T09:26:47.440Z,101384.81
2022-08-19T09:29:40.960Z,101382.41
2022-08-19T09:32:26.896Z,101391.47
2022-08-19T09:35:15.071Z,101395.06
2022-08-19T09:37:59.406Z,101388.06
2022-08-19T09:40:53.699Z,101395.19
2022-08-19T09:43:44.541Z,101385.69
2022-08-19T09:46:41.313Z,101394.44
2022-08-19T09:49:31.606Z,101384.97
2022-08-19T09:52:23.903Z,101384.75
2022-08-19T09:55:13.459Z,101389.63
2022-08-19T09:58:03.348Z,101389.72
2022-08-19T10:00:51.547Z,101387.44
2022-08-19T10:03:42.106Z,101386.94
2022-08-19T10:06:43.998Z,101386.34
2022-08-19T10:09:35.665Z,101385.66
2022-08-19T10:12:20.550Z,101383.47
2022-08-19T10:15:14.121Z,101390.03
2022-08-19T10:18:02.022Z,101391.78
2022-08-19T10:20:43.461Z,101384.53
2022-08-19T10:23:33.577Z,101388.25
2022-08-19T10:26:16.147Z,101385.00
2022-08-19T10:29:05.934Z,101405.84
2022-08-19T10:32:01.116Z,101395.34
2022-08-19T10:34:53.055Z,101396.69
2022-08-19T10:37:46.304Z,101398.31
2022-08-19T10:40:52.576Z,101389.63
2022-08-19T10:43:47.816Z,101391.31
2022-08-19T10:46:49.367Z,101389.41
2022-08-19T10:49:33.784Z,101385.94
2022-08-19T10:52:49.014Z,101386.06
2022-08-19T10:55:53.824Z,101385.56
2022-08-19T10:58:45.362Z,101380.31
2022-08-19T11:01:32.400Z,101389.25
2022-08-19T11:04:29.608Z,101387.25
2022-08-19T11:07:17.920Z,101383.78
2022-08-19T11:10:11.486Z,101380.16
2022-08-19T11:12:57.112Z,101380.38
2022-08-19T11:15:56.937Z,101373.34
2022-08-19T11:18:49.807Z,101375.59
2022-08-19T11:21:37.252Z,101371.19
2022-08-19T11:24:28.666Z,101374.47
2022-08-19T11:27:18.957Z,101375.66
2022-08-19T11:30:15.256Z,101373.34
2022-08-19T11:33:00.981Z,101380.03
2022-08-19T11:35:52.355Z,101376.50
2022-08-19T11:38:37.941Z,101370.47
2022-08-19T11:41:33.652Z,101383.47
2022-08-19T11:44:20.823Z,101378.59
2022-08-19T11:47:09.444Z,101381.34
2022-08-19T11:49:54.103Z,101373.63
2022-08-19T11:52:55.015Z,101381.91
2022-08-19T11:55:36.223Z,101377.50
2022-08-19T11:58:33.657Z,101383.66
2022-08-19T12:01:24.517Z,101385.50
2022-08-19T12:04:13.987Z,101390.59
2022-08-19T12:06:59.701Z,101391.34
2022-08-19T12:09:49.590Z,101398.41
2022-08-19T12:12:38.803Z,101391.97
2022-08-19T12:15:39.647Z,101391.88
2022-08-19T12:18:34.589Z,101394.03
2022-08-19T12:21:18.085Z,101386.63
2022-08-19T12:24:12.886Z,101401.69
2022-08-19T12:27:00.956Z,101382.75
2022-08-19T12:29:57.584Z,101391.59
2022-08-19T12:32:39.462Z,101391.44
2022-08-19T12:35:33.612Z,101387.03
2022-08-19T12:38:19.751Z,101391.50
2022-08-19T12:41:17.530Z,101393.53
2022-08-19T12:44:04.524Z,101395.56
2022-08-19T12:46:58.942Z,101393.84
2022-08-19T12:49:58.867Z,101397.31
2022-08-19T12:52:53.871Z,101388.97
2022-08-19T12:55:38.803Z,101386.38
2022-08-19T12:58:29.219Z,101382.03
2022-08-19T13:01:17.741Z,101384.81
2022-08-19T13:04:17.130Z,101386.56
2022-08-19T13:07:05.551Z,101386.16
2022-08-19T13:09:57.077Z,101378.78
2022-08-19T13:12:51.624Z,101392.72
2022-08-19T13:15:50.290Z,101388.06
2022-08-19T13:18:43.261Z,101387.59
2022-08-19T13:21:30.166Z,101394.66
2022-08-19T13:24:19.676Z,101392.09
2022-08-19T13:27:04.631Z,101391.75
2022-08-19T13:30:10.887Z,101384.88
2022-08-19T13:33:15.585Z,101387.84
2022-08-19T13:39:08.316Z,101396.16
2022-08-19T13:42:03.031Z,101389.19
2022-08-19T13:44:58.171Z,101390.91
2022-08-19T13:47:50.305Z,101401.56
2022-08-19T13:50:39.705Z,101403.72
2022-08-19T13:53:28.083Z,101406.63
2022-08-19T13:56:14.505Z,101420.28
2022-08-19T13:59:01.375Z,101407.47
2022-08-19T14:01:45.381Z,101418.72
2022-08-19T14:04:35.123Z,101416.66
2022-08-19T14:07:17.012Z,101414.38
2022-08-19T14:10:05.473Z,101418.50
2022-08-19T14:12:48.620Z,101409.75
2022-08-19T14:15:36.175Z,101418.66
2022-08-19T14:18:25.996Z,101414.44
2022-08-19T14:21:09.867Z,101410.56
2022-08-19T14:23:58.031Z,101407.00
2022-08-19T14:26:39.575Z,101401.53
2022-08-19T14:29:27.143Z,101397.84
2022-08-19T14:32:11.502Z,101402.06
2022-08-19T14:35:03.521Z,101392.38
2022-08-19T14:37:45.817Z,101401.13
2022-08-19T14:40:37.731Z,101402.72
2022-08-19T14:43:19.214Z,101398.38
2022-08-19T14:46:10.561Z,101401.84
2022-08-19T14:48:52.580Z,101394.59
2022-08-19T14:51:42.334Z,101406.31
2022-08-19T14:54:23.221Z,101403.13
2022-08-19T14:57:13.120Z,101410.88
2022-08-19T14:59:54.314Z,101413.53
2022-08-19T15:02:41.078Z,101419.91
2022-08-19T15:05:22.278Z,101417.16
2022-08-19T15:08:12.155Z,101424.38
2022-08-19T15:10:53.460Z,101421.41
2022-08-19T15:13:40.424Z,101420.91
2022-08-19T15:16:37.024Z,101422.75
2022-08-19T15:19:35.423Z,101424.63
2022-08-19T15:22:23.163Z,101423.81
2022-08-19T15:25:04.031Z,101429.91
2022-08-19T15:27:54.223Z,101427.94
2022-08-19T15:30:36.199Z,101426.22
2022-08-19T15:33:24.144Z,101427.41
2022-08-19T15:36:05.184Z,101428.03
2022-08-19T15:38:53.255Z,101440.03
2022-08-19T15:41:37.240Z,101442.72
2022-08-19T15:44:26.179Z,101438.47
2022-08-19T15:47:07.050Z,101437.53
2022-08-19T15:50:00.552Z,101435.91
2022-08-19T15:52:49.547Z,101445.34
2022-08-19T15:55:42.184Z,101448.97
2022-08-19T15:58:44.044Z,101451.84
2022-08-19T16:01:50.869Z,101451.28
2022-08-19T16:04:51.059Z,101451.31
2022-08-19T16:07:38.239Z,101455.72
2022-08-19T16:10:27.147Z,101455.47
2022-08-19T16:13:18.644Z,101452.97
2022-08-19T16:16:03.487Z,101463.75
2022-08-19T16:18:53.686Z,101455.81
2022-08-19T16:21:41.516Z,101458.16
2022-08-19T16:24:34.899Z,101461.56
2022-08-19T16:27:16.887Z,101459.59
2022-08-19T16:30:04.187Z,101460.81
2022-08-19T16:32:50.103Z,101462.84
2022-08-19T16:35:40.084Z,101457.53
2022-08-19T16:38:23.082Z,101470.88
2022-08-19T16:41:14.384Z,101467.38
2022-08-19T16:44:01.231Z,101470.09
2022-08-19T16:46:58.984Z,101470.25
2022-08-19T16:49:53.358Z,101472.63
2022-08-19T16:52:42.886Z,101465.13
2022-08-19T16:55:25.815Z,101460.84
2022-08-19T16:58:14.781Z,101461.44
2022-08-19T17:00:59.585Z,101462.25
2022-08-19T17:03:52.164Z,101464.88
2022-08-19T17:06:37.529Z,101464.78
2022-08-19T17:09:26.701Z,101462.97
2022-08-19T17:12:13.117Z,101463.94
2022-08-19T17:15:01.215Z,101463.91
2022-08-19T17:17:58.218Z,101469.06
2022-08-19T17:20:49.591Z,101468.16
2022-08-19T17:23:42.970Z,101460.84
2022-08-19T17:26:34.251Z,101467.00
2022-08-19T17:29:16.106Z,101463.47
2022-08-19T17:32:03.319Z,101466.00
2022-08-19T17:34:45.194Z,101465.22
2022-08-19T17:37:32.248Z,101467.91
2022-08-19T17:40:15.565Z,101458.09
2022-08-19T17:43:10.050Z,101462.28
2022-08-19T17:45:51.266Z,101458.66
2022-08-19T17:48:40.308Z,101459.25
2022-08-19T17:54:33.783Z,101464.19
2022-08-19T17:57:15.532Z,101457.03
2022-08-19T18:00:06.181Z,101465.91
2022-08-19T18:03:02.118Z,101465.94
2022-08-19T18:05:53.571Z,101464.09
2022-08-19T18:08:34.867Z,101464.72
2022-08-19T18:11:23.246Z,101470.19
2022-08-19T18:14:04.534Z,101464.16
2022-08-19T18:17:02.134Z,101468.47
2022-08-19T18:19:50.505Z,101465.88
2022-08-19T18:22:37.314Z,101459.88
2022-08-19T18:25:32.174Z,101459.16
2022-08-19T18:28:14.159Z,101464.44
2022-08-19T18:31:03.164Z,101475.13
2022-08-19T18:33:44.616Z,101473.34
2022-08-19T18:36:53.015Z,101473.75
2022-08-19T18:40:02.987Z,101486.34
2022-08-19T18:43:12.161Z,101488.16
2022-08-19T18:46:13.234Z,101493.63
2022-08-19T18:49:16.872Z,101493.78
2022-08-19T18:51:57.643Z,101500.91
2022-08-19T18:54:47.546Z,101502.09
2022-08-19T18:57:28.269Z,101498.75
2022-08-19T19:00:17.526Z,101507.88
2022-08-19T19:02:58.415Z,101501.91
2022-08-19T19:05:47.155Z,101506.31
2022-08-19T19:08:28.280Z,101505.69
2022-08-19T19:11:15.549Z,101511.19
2022-08-19T19:13:56.322Z,101511.28
2022-08-19T19:16:52.547Z,101514.03
2022-08-19T19:19:42.723Z,101512.47
2022-08-19T19:22:26.196Z,101520.50
2022-08-19T19:25:14.062Z,101522.31
2022-08-19T19:27:56.107Z,101519.78
2022-08-19T19:30:43.338Z,101523.50
2022-08-19T19:33:24.550Z,101524.41
2022-08-19T19:36:12.830Z,101529.78
2022-08-19T19:38:53.209Z,101534.31
2022-08-19T19:41:43.342Z,101537.94
2022-08-19T19:44:30.495Z,101530.88
2022-08-19T19:47:24.692Z,101539.78
2022-08-19T19:50:15.233Z,101538.84
2022-08-19T19:53:04.325Z,101542.50
2022-08-19T19:55:49.405Z,101546.97
2022-08-19T19:58:41.811Z,101546.97
2022-08-19T20:01:24.714Z,101546.97
2022-08-19T20:04:13.321Z,101552.31
2022-08-19T20:06:55.546Z,101560.22
2022-08-19T20:09:59.395Z,101559.38
2022-08-19T20:12:42.595Z,101564.78
2022-08-19T20:15:31.431Z,101569.16
2022-08-19T20:18:23.598Z,101573.56
2022-08-19T20:21:07.370Z,101572.81
2022-08-19T20:24:09.301Z,101570.22
2022-08-19T20:26:53.416Z,101572.13
2022-08-19T20:29:46.015Z,101575.69
2022-08-19T20:32:28.087Z,101571.31
2022-08-19T20:35:18.346Z,101564.25
2022-08-19T20:38:00.717Z,101566.94
2022-08-19T20:40:48.228Z,101567.06
2022-08-19T20:43:29.568Z,101581.97
2022-08-19T20:46:17.254Z,101577.47
2022-08-19T20:48:59.100Z,101573.19
2022-08-19T20:51:50.463Z,101581.19
2022-08-19T20:54:36.292Z,101583.88
2022-08-19T20:57:24.250Z,101582.03
2022-08-19T21:00:07.282Z,101581.97
2022-08-19T21:02:57.528Z,101580.19
2022-08-19T21:05:38.796Z,101579.38
2022-08-19T21:08:25.761Z,101580.16
2022-08-19T21:11:08.402Z,101582.03
2022-08-19T21:13:56.271Z,101583.84
2022-08-19T21:16:37.382Z,101584.78
2022-08-19T21:19:24.431Z,101582.22
2022-08-19T21:22:09.352Z,101580.41
2022-08-19T21:24:57.708Z,101587.50
2022-08-19T21:27:38.418Z,101582.25
2022-08-19T21:30:25.777Z,101577.75
2022-08-19T21:33:07.392Z,101574.34
2022-08-19T21:35:57.008Z,101573.59
2022-08-19T21:38:38.821Z,101584.13
2022-08-19T21:41:26.275Z,101584.13
2022-08-19T21:44:07.398Z,101577.81
2022-08-19T21:46:56.712Z,101582.22
2022-08-19T21:49:38.544Z,101585.75
2022-08-19T21:52:31.709Z,101586.69
2022-08-19T21:55:14.392Z,101586.78
2022-08-19T21:58:06.274Z,101579.84
2022-08-19T22:00:47.809Z,101586.91
2022-08-19T22:03:37.560Z,101591.34
2022-08-19T22:06:18.940Z,101589.56
2022-08-19T22:09:06.268Z,101595.72
2022-08-19T22:11:47.471Z,101589.66
2022-08-19T22:14:34.686Z,101594.94
2022-08-19T22:17:28.295Z,101600.25
2022-08-19T22:20:20.348Z,101605.56
2022-08-19T22:23:04.939Z,101604.69
2022-08-19T22:25:53.311Z,101603.81
2022-08-19T22:28:34.390Z,101609.09
2022-08-19T22:31:21.791Z,101612.63
2022-08-19T22:34:03.804Z,101609.97
2022-08-19T22:36:51.378Z,101614.38
2022-08-19T22:39:32.435Z,101622.28
2022-08-19T22:42:31.786Z,101618.78
2022-08-19T22:45:17.458Z,101628.44
2022-08-19T22:48:05.082Z,101624.94
2022-08-19T22:51:08.387Z,101626.69
2022-08-19T22:53:58.828Z,101623.19
2022-08-19T22:56:39.990Z,101623.16
2022-08-19T22:59:27.356Z,101621.41
2022-08-19T23:02:08.414Z,101624.03
2022-08-19T23:04:56.311Z,101614.34
2022-08-19T23:07:38.005Z,101609.06
2022-08-19T23:10:27.257Z,101615.19
2022-08-19T23:13:08.485Z,101609.88
2022-08-19T23:15:56.716Z,101600.16
2022-08-19T23:18:55.958Z,101591.28
2022-08-19T23:21:51.096Z,101597.47
2022-08-19T23:24:33.439Z,101592.19
2022-08-19T23:27:40.414Z,101595.69
2022-08-19T23:30:28.087Z,101593.94
2022-08-19T23:33:25.731Z,101596.59
2022-08-19T23:36:24.844Z,101593.06
2022-08-19T23:39:11.337Z,101594.84
2022-08-19T23:41:52.871Z,101592.16
2022-08-19T23:44:51.386Z,101596.56
2022-08-19T23:47:34.206Z,101596.56
2022-08-19T23:50:23.924Z,101593.94
2022-08-19T23:53:06.625Z,101594.81
2022-08-19T23:56:01.363Z,101596.56
2022-08-19T23:58:43.450Z,101600.06
